KCKV/CKV METAR and TAF weather

Enter ICAO airport designator
Station Type Date Time Source
KCKV METAR 2018/12/10 19:52 UTC NOAA

KCKV 101952Z AUTO 31003KT 10SM CLR 04/M05 A3023 RMK AO2 SLP240 T00441050


Station Type Date Time Source
KCKV Decoded METAR 2018/12/10 19:52 UTC NOAA

CLARKSVILLE OUTLAW FIELD, TN, United States (KCKV) 36-37N 87-25W 165M
Dec 10, 2018 - 02:52 PM EST / 2018.12.10 1952 UTC
Wind: from the NW (310 degrees) at 3 MPH (3 KT):0
Visibility: 10 mile(s):0
Sky conditions: clear
Temperature: 39.9 F (4.4 C)
Dew Point: 23.0 F (-5.0 C)
Relative Humidity: 50%
Pressure (altimeter): 30.23 in. Hg (1023 hPa)
ob: KCKV 101952Z AUTO 31003KT 10SM CLR 04/M05 A3023 RMK AO2 SLP240 T00441050
cycle: 20

Station Type Date Time Source
KCKV TAF 2018/12/10 18:22 UTC NOAA

TAF KCKV 101720Z 1018/1118 35008KT P6SM BKN250
FM110000 30003KT P6SM SKC
FM111500 23006KT P6SM SCT250


Example: see airport list